Time;durP1;ratioP1;P1;durP2;ratioP2;P2;SDS_P1;SDS_P2;PMS_P1;PMS_P2;Temp;Humidity;BMP_temperature;BMP_pressure;BME280_temperature;BME280_humidity;BME280_pressure;Samples;Min_cycle;Max_cycle;Signal;HPM_P1;HPM_P2
2022/01/29 00:00:05;;;;;;;8.97;4.63;;;;;;;3.80;60.51;99863.06;5012264;28;20419;-81
2022/01/29 00:02:30;;;;;;;10.27;5.33;;;;;;;3.72;61.04;99859.97;5012657;28;20218;-81
2022/01/29 00:04:56;;;;;;;10.47;5.40;;;;;;;2.93;60.88;99738.69;5012414;28;20917;-81
2022/01/29 00:07:21;;;;;;;7.70;3.97;;;;;;;3.50;61.20;99866.56;5012670;28;21339;-81
2022/01/29 00:09:47;;;;;;;7.30;4.13;;;;;;;2.36;62.28;99699.09;5012191;28;20170;-81
2022/01/29 00:12:13;;;;;;;7.80;4.40;;;;;;;3.28;61.97;99863.13;5011641;28;20186;-80
2022/01/29 00:14:39;;;;;;;10.17;4.87;;;;;;;3.18;63.05;99864.03;5012157;28;20413;-81
2022/01/29 00:17:04;;;;;;;8.63;4.57;;;;;;;2.08;62.55;99675.16;5012121;28;20189;-81
2022/01/29 00:19:29;;;;;;;5.70;3.07;;;;;;;2.16;62.75;99682.50;5011005;28;20265;-81
2022/01/29 00:21:56;;;;;;;9.93;5.03;;;;;;;2.15;62.87;99684.88;5012292;28;20520;-81
2022/01/29 00:24:22;;;;;;;10.33;5.00;;;;;;;2.86;62.53;99821.44;5011969;28;20555;-80
2022/01/29 00:26:47;;;;;;;8.83;4.10;;;;;;;3.25;63.01;99848.75;5012435;28;20405;-80
2022/01/29 00:29:21;;;;;;;8.13;4.67;;;;;;;2.17;62.29;99676.75;5012386;28;20165;-82
2022/01/29 00:31:47;;;;;;;8.50;4.70;;;;;;;3.18;62.89;99864.03;5012210;28;20183;-82
2022/01/29 00:34:13;;;;;;;9.07;5.13;;;;;;;2.89;63.28;99804.19;5011921;28;20466;-82
2022/01/29 00:36:38;;;;;;;8.77;5.13;;;;;;;2.86;62.74;99801.44;5011963;28;20174;-81
2022/01/29 00:39:04;;;;;;;6.33;3.67;;;;;;;2.71;62.83;99792.75;5012384;28;20589;-81
2022/01/29 00:41:29;;;;;;;6.07;3.03;;;;;;;3.12;63.43;99857.66;5011736;28;20198;-81
2022/01/29 00:43:55;;;;;;;11.07;4.93;;;;;;;2.24;63.76;99718.09;5011932;28;20162;-81
2022/01/29 00:46:20;;;;;;;9.00;4.60;;;;;;;1.81;63.78;99647.97;5012108;28;20170;-81
2022/01/29 00:48:45;;;;;;;8.73;4.93;;;;;;;2.90;64.17;99858.47;5012078;28;20194;-81
2022/01/29 00:51:11;;;;;;;10.93;5.17;;;;;;;2.84;64.66;99867.97;5012251;28;20173;-81
2022/01/29 00:53:36;;;;;;;11.73;5.90;;;;;;;2.71;64.57;99847.72;5011969;28;20659;-81
2022/01/29 00:56:06;;;;;;;10.40;5.50;;;;;;;1.98;64.90;99727.59;5012845;28;20193;-82
2022/01/29 00:58:32;;;;;;;11.07;5.67;;;;;;;2.79;65.43;99874.22;5012344;28;20216;-82
2022/01/29 01:00:58;;;;;;;10.83;5.37;;;;;;;2.42;64.75;99804.47;5011861;28;20911;-82
2022/01/29 01:03:24;;;;;;;11.03;6.27;;;;;;;2.24;64.78;99778.03;5011796;28;20250;-81
2022/01/29 01:05:49;;;;;;;8.73;4.53;;;;;;;2.31;65.45;99785.25;5012098;28;20194;-81
2022/01/29 01:08:14;;;;;;;9.40;4.93;;;;;;;2.78;65.51;99871.56;5011782;28;20162;-82
2022/01/29 01:10:40;;;;;;;10.47;3.93;;;;;;;-0.93;64.80;99239.84;5011709;28;20167;-82
2022/01/29 01:13:05;;;;;;;11.73;5.97;;;;;;;2.82;65.19;99873.59;5027877;28;20663;-81
2022/01/29 01:15:32;;;;;;;9.93;5.00;;;;;;;2.31;64.73;99766.16;5012363;28;20166;-81
2022/01/29 01:17:58;;;;;;;12.27;5.07;;;;;;;2.54;64.08;99812.09;5012919;28;20608;-81
2022/01/29 01:20:23;;;;;;;10.70;4.63;;;;;;;2.96;63.34;99873.97;5012581;28;20875;-81
2022/01/29 01:22:48;;;;;;;8.27;4.63;;;;;;;1.87;62.74;99655.94;5014639;28;20246;-82
2022/01/29 01:25:14;;;;;;;11.20;5.30;;;;;;;2.71;63.14;99814.34;5015497;28;20169;-81
2022/01/29 01:27:39;;;;;;;12.70;5.47;;;;;;;2.00;62.77;99669.56;5015587;28;20177;-81
2022/01/29 01:30:06;;;;;;;10.20;4.40;;;;;;;3.12;61.76;99847.66;5014508;28;20167;-81
2022/01/29 01:32:31;;;;;;;11.03;6.23;;;;;;;3.17;62.31;99854.78;5014961;28;20221;-81
2022/01/29 01:35:07;;;;;;;11.90;5.97;;;;;;;2.88;61.94;99784.94;5014907;28;20465;-81
2022/01/29 01:37:39;;;;;;;10.47;5.23;;;;;;;3.25;61.94;99838.75;5014933;28;20193;-81
2022/01/29 01:40:07;;;;;;;7.83;3.87;;;;;;;2.90;61.73;99778.44;5015355;28;20417;-82
2022/01/29 01:42:32;;;;;;;10.43;4.97;;;;;;;3.18;62.16;99830.63;5015037;28;20409;-82
2022/01/29 01:44:58;;;;;;;8.93;4.60;;;;;;;2.85;61.59;99768.84;5016386;28;20393;-81
2022/01/29 01:47:23;;;;;;;8.53;4.43;;;;;;;2.83;62.14;99773.69;5036696;28;20161;-81
2022/01/29 01:49:49;;;;;;;8.83;4.33;;;;;;;3.12;62.70;99825.16;5040391;28;20171;-82
2022/01/29 01:52:14;;;;;;;9.30;4.03;;;;;;;2.07;62.26;99668.41;5022532;28;20208;-81
2022/01/29 01:54:41;;;;;;;9.57;4.83;;;;;;;2.88;63.50;99827.44;5015168;28;20190;-82
2022/01/29 01:57:07;;;;;;;8.33;4.27;;;;;;;2.75;63.46;99827.22;5013269;28;20167;-81
2022/01/29 01:59:33;;;;;;;10.83;5.43;;;;;;;2.41;63.53;99771.91;5014575;28;20472;-81
2022/01/29 02:01:58;;;;;;;10.70;4.97;;;;;;;2.12;63.44;99712.09;5014602;28;20166;-80
2022/01/29 02:04:24;;;;;;;9.53;4.97;;;;;;;2.50;63.79;99792.63;5014739;28;20483;-81
2022/01/29 02:06:51;;;;;;;7.57;3.73;;;;;;;2.44;63.95;99780.53;5014355;28;20175;-81
2022/01/29 02:09:19;;;;;;;9.80;4.37;;;;;;;2.77;62.63;99815.72;5015288;28;20163;-81
2022/01/29 02:11:51;;;;;;;9.37;4.73;;;;;;;2.56;62.22;99749.00;5014781;28;20513;-81
2022/01/29 02:14:18;;;;;;;8.53;4.17;;;;;;;2.89;61.37;99801.69;5014777;28;20438;-81
2022/01/29 02:16:44;;;;;;;7.57;4.70;;;;;;;3.04;61.12;99803.66;5014544;28;20409;-81
2022/01/29 02:19:09;;;;;;;7.53;4.30;;;;;;;3.04;60.52;99798.66;5014446;28;20532;-81
2022/01/29 02:21:38;;;;;;;8.40;4.37;;;;;;;3.11;59.92;99808.38;5014496;28;20189;-81
2022/01/29 02:24:04;;;;;;;8.93;4.77;;;;;;;2.05;59.71;99625.84;5014373;28;20643;-82
2022/01/29 02:26:29;;;;;;;8.27;4.90;;;;;;;3.01;59.57;99795.91;5013601;28;20432;-80
2022/01/29 02:28:55;;;;;;;6.63;3.93;;;;;;;2.75;59.11;99771.34;5014960;28;20173;-81
2022/01/29 02:31:20;;;;;;;8.53;4.47;;;;;;;1.60;59.51;99598.06;5014001;28;20171;-81
2022/01/29 02:33:46;;;;;;;7.93;4.87;;;;;;;1.77;59.41;99621.88;5012341;28;20492;-82
2022/01/29 02:36:11;;;;;;;10.20;4.30;;;;;;;1.75;59.05;99616.78;5012367;28;20293;-81
2022/01/29 02:38:37;;;;;;;8.80;4.93;;;;;;;2.07;59.13;99688.38;5013787;28;20655;-81
2022/01/29 02:41:05;;;;;;;9.77;5.17;;;;;;;2.22;59.63;99727.09;5013986;28;20163;-81
2022/01/29 02:43:43;;;;;;;7.33;4.30;;;;;;;1.81;60.08;99655.44;5014371;28;20679;-81
2022/01/29 02:48:41;;;;;;;8.53;3.80;;;;;;;2.64;60.29;99802.97;5014823;28;20428;-81
2022/01/29 02:51:07;;;;;;;9.13;4.93;;;;;;;2.36;59.95;99759.91;5015257;28;20406;-80
2022/01/29 02:53:32;;;;;;;9.57;5.07;;;;;;;2.76;59.72;99828.97;5014725;28;20205;-81
2022/01/29 02:55:58;;;;;;;11.00;5.83;;;;;;;1.36;59.66;99611.03;5013964;28;20186;-81
2022/01/29 02:58:23;;;;;;;11.53;6.43;;;;;;;2.54;60.07;99825.47;5013895;28;20190;-81
2022/01/29 03:00:49;;;;;;;13.80;6.50;;;;;;;0.39;60.44;99468.31;5014009;28;20163;-81
2022/01/29 03:03:14;;;;;;;10.77;5.50;;;;;;;2.37;61.10;99833.22;5013606;28;20167;-80
2022/01/29 03:05:40;;;;;;;11.97;5.60;;;;;;;2.02;60.69;99759.53;5013654;28;20174;-81
2022/01/29 03:08:05;;;;;;;11.20;5.40;;;;;;;1.83;61.98;99748.78;5028605;28;20221;-81
2022/01/29 03:10:30;;;;;;;9.57;5.50;;;;;;;1.49;61.81;99688.59;5013374;28;20163;-81
2022/01/29 03:12:56;;;;;;;12.57;6.23;;;;;;;2.18;62.17;99829.94;5013657;28;20241;-81
2022/01/29 03:15:21;;;;;;;9.60;4.97;;;;;;;2.17;62.09;99829.06;5014204;28;20646;-82
2022/01/29 03:17:48;;;;;;;11.03;5.40;;;;;;;1.26;61.73;99653.41;5013414;28;20220;-80
2022/01/29 03:20:14;;;;;;;12.07;6.63;;;;;;;1.91;61.85;99770.25;5012969;28;20167;-81
2022/01/29 03:22:39;;;;;;;34.60;15.53;;;;;;;2.26;61.62;99837.34;5012814;28;20394;-80
2022/01/29 03:25:06;;;;;;;39.27;18.07;;;;;;;1.89;62.62;99787.63;5012718;28;20627;-82
2022/01/29 03:27:32;;;;;;;27.37;13.17;;;;;;;1.12;63.82;99708.72;5011702;28;20252;-82
2022/01/29 03:29:57;;;;;;;14.00;7.27;;;;;;;1.30;64.33;99755.13;5012786;28;20846;-82
2022/01/29 03:32:22;;;;;;;10.10;4.67;;;;;;;1.64;63.63;99844.56;5011746;28;20202;-81
2022/01/29 03:34:48;;;;;;;8.47;5.00;;;;;;;1.45;62.75;99793.88;5012701;28;20580;-81
2022/01/29 03:37:13;;;;;;;12.07;3.97;;;;;;;1.71;62.36;99836.84;5011346;28;20174;-81
2022/01/29 03:39:41;;;;;;;7.93;4.20;;;;;;;0.75;61.56;99653.97;5012857;28;20583;-81
2022/01/29 03:42:09;;;;;;;7.90;3.20;;;;;;;1.32;61.50;99723.72;5012683;28;20212;-81
2022/01/29 03:44:34;;;;;;;6.90;3.37;;;;;;;1.67;61.16;99741.66;5012436;28;20421;-81
2022/01/29 03:47:00;;;;;;;7.73;3.30;;;;;;;0.98;60.43;99590.41;5012212;28;20417;-82
2022/01/29 03:49:25;;;;;;;7.43;3.97;;;;;;;2.38;59.77;99833.38;5011414;28;20159;-81
2022/01/29 03:51:51;;;;;;;8.77;3.63;;;;;;;0.82;60.89;99556.59;5012622;28;20958;-82
2022/01/29 03:54:16;;;;;;;9.17;4.53;;;;;;;1.43;60.79;99675.59;5012479;28;20224;-81
2022/01/29 03:56:42;;;;;;;7.23;3.83;;;;;;;2.16;61.19;99814.84;5012738;28;20553;-81
2022/01/29 03:59:07;;;;;;;10.63;4.80;;;;;;;2.38;61.67;99837.47;5028256;28;20173;-81
2022/01/29 04:01:33;;;;;;;9.50;5.13;;;;;;;1.45;62.32;99653.31;5013318;28;20155;-81
2022/01/29 04:03:58;;;;;;;8.77;5.13;;;;;;;2.49;62.56;99849.22;5026412;28;20161;-81
2022/01/29 04:06:24;;;;;;;13.73;5.97;;;;;;;1.87;63.15;99754.13;5037609;28;20159;-81
2022/01/29 04:08:50;;;;;;;10.90;5.83;;;;;;;2.40;64.22;99853.47;5030274;28;20162;-81
2022/01/29 04:11:16;;;;;;;11.30;5.50;;;;;;;2.46;63.62;99855.59;5012540;28;20429;-81
2022/01/29 04:13:46;;;;;;;9.03;5.00;;;;;;;2.48;64.10;99849.97;5012198;28;20187;-81
2022/01/29 04:16:13;;;;;;;9.40;4.60;;;;;;;2.53;63.51;99852.84;5012249;28;20472;-81
2022/01/29 04:18:39;;;;;;;11.73;5.27;;;;;;;1.04;62.75;99615.81;5012312;28;20795;-81
2022/01/29 04:21:05;;;;;;;12.30;5.67;;;;;;;2.19;63.44;99825.09;5012558;28;20410;-81
2022/01/29 04:23:31;;;;;;;10.20;5.03;;;;;;;2.00;62.82;99781.00;5012116;28;20624;-81
2022/01/29 04:25:56;;;;;;;12.57;6.80;;;;;;;2.41;62.80;99857.72;5012164;28;20412;-82
2022/01/29 04:28:26;;;;;;;9.23;4.70;;;;;;;1.74;62.75;99777.22;5012799;28;20401;-82
2022/01/29 04:30:57;;;;;;;10.27;4.93;;;;;;;1.90;62.58;99801.81;5012278;28;20624;-81
2022/01/29 04:35:49;;;;;;;16.50;5.93;;;;;;;2.05;63.31;99849.66;5012563;28;20961;-82
2022/01/29 04:38:18;;;;;;;19.10;8.73;;;;;;;1.22;64.17;99711.22;5012148;28;20254;-80
2022/01/29 04:40:43;;;;;;;19.73;8.07;;;;;;;2.13;64.07;99869.53;5011663;28;20537;-81
2022/01/29 04:43:09;;;;;;;17.73;9.07;;;;;;;1.96;64.49;99842.28;5010734;28;20516;-81
2022/01/29 04:45:34;;;;;;;13.67;7.00;;;;;;;1.11;64.09;99707.84;5012557;28;20584;-82
2022/01/29 04:48:00;;;;;;;10.77;5.13;;;;;;;-0.63;63.71;99391.56;5013311;28;20497;-81
2022/01/29 04:50:26;;;;;;;7.70;4.00;;;;;;;1.50;63.61;99744.34;5013321;28;20174;-81
2022/01/29 04:52:52;;;;;;;11.17;5.47;;;;;;;2.14;63.66;99870.41;5012899;28;20264;-82
2022/01/29 04:55:17;;;;;;;22.53;9.77;;;;;;;1.30;63.46;99731.81;5012825;28;20659;-81
2022/01/29 04:57:43;;;;;;;35.50;11.00;;;;;;;-0.49;62.38;99444.06;5019776;28;20170;-82
2022/01/29 05:00:11;;;;;;;30.37;11.43;;;;;;;1.99;63.77;99869.13;5018379;28;20191;-82
2022/01/29 05:02:37;;;;;;;45.63;15.77;;;;;;;1.71;63.90;99836.84;5017963;28;20163;-81
2022/01/29 05:05:05;;;;;;;48.27;15.80;;;;;;;1.29;65.24;99763.38;5016537;28;20552;-80
2022/01/29 05:07:31;;;;;;;34.67;11.87;;;;;;;0.69;65.84;99659.31;5018771;28;20167;-82
2022/01/29 05:09:56;;;;;;;19.50;8.93;;;;;;;0.96;65.88;99700.69;5024844;28;20540;-82
2022/01/29 05:12:27;;;;;;;11.07;6.07;;;;;;;1.93;66.30;99873.59;5016494;28;20198;-81
2022/01/29 05:28:04;;;;;;;17.23;8.77;;;;;;;1.70;66.74;99880.00;5015739;28;20409;-81
2022/01/29 05:30:30;;;;;;;16.63;7.80;;;;;;;1.41;67.07;99828.38;5015475;28;20409;-82
2022/01/29 05:32:55;;;;;;;20.27;9.07;;;;;;;1.72;68.39;99882.66;5015463;28;20211;-81
2022/01/29 05:35:21;;;;;;;31.27;16.13;;;;;;;1.73;68.78;99882.75;5016072;28;20227;-81
2022/01/29 05:37:49;;;;;;;15.87;7.70;;;;;;;1.87;68.36;99883.09;5016986;28;20175;-81
2022/01/29 05:40:15;;;;;;;12.97;6.43;;;;;;;1.69;68.81;99845.84;5015760;28;20159;-81
2022/01/29 05:42:40;;;;;;;13.40;7.17;;;;;;;2.13;68.43;99897.00;5014681;28;20944;-82
2022/01/29 05:45:06;;;;;;;14.87;7.70;;;;;;;2.11;67.71;99911.00;5015458;28;20245;-81
2022/01/29 05:47:31;;;;;;;14.57;7.20;;;;;;;0.77;67.20;99650.88;5015988;28;20254;-81
2022/01/29 05:49:57;;;;;;;15.30;7.70;;;;;;;2.31;66.54;99906.03;5014929;28;20182;-81
2022/01/29 05:52:23;;;;;;;12.77;5.80;;;;;;;2.31;65.89;99918.50;5015074;28;20195;-81
2022/01/29 05:54:48;;;;;;;14.67;7.23;;;;;;;2.35;66.03;99909.66;5013519;28;20185;-81
2022/01/29 05:57:14;;;;;;;18.27;8.37;;;;;;;2.01;65.09;99837.66;5013623;28;20190;-81
2022/01/29 05:59:39;;;;;;;11.90;6.33;;;;;;;1.53;63.94;99740.50;5019262;28;20189;-80
2022/01/29 06:02:05;;;;;;;11.13;5.80;;;;;;;2.67;63.31;99904.81;5016144;28;20530;-81
2022/01/29 06:04:30;;;;;;;10.47;5.57;;;;;;;2.71;62.85;99919.31;5016875;28;20167;-81
2022/01/29 06:06:56;;;;;;;13.03;6.80;;;;;;;2.24;62.21;99817.97;5016746;28;20163;-81
2022/01/29 06:09:21;;;;;;;12.03;6.20;;;;;;;1.55;61.20;99699.09;5014369;28;20179;-81
2022/01/29 06:11:46;;;;;;;14.23;7.40;;;;;;;2.64;61.10;99870.44;5021649;28;20167;-82
2022/01/29 06:14:12;;;;;;;9.57;5.47;;;;;;;2.71;60.60;99880.22;5017565;28;20173;-82
2022/01/29 06:16:38;;;;;;;11.17;6.20;;;;;;;2.13;59.68;99764.66;5013747;28;20273;-81
2022/01/29 06:19:03;;;;;;;7.53;4.63;;;;;;;3.02;59.67;99925.22;5006401;28;20421;-81
2022/01/29 06:21:29;;;;;;;11.37;6.77;;;;;;;2.25;59.61;99800.59;5018876;28;20178;-81
2022/01/29 06:23:55;;;;;;;13.93;7.03;;;;;;;3.18;59.53;99931.56;5032994;28;20217;-81
2022/01/29 06:26:20;;;;;;;12.20;7.07;;;;;;;3.11;59.80;99940.94;5072245;28;20194;-81
2022/01/29 06:28:45;;;;;;;19.67;9.43;;;;;;;2.89;60.31;99890.81;5034661;28;20162;-81
2022/01/29 06:31:11;;;;;;;15.90;8.83;;;;;;;3.27;60.26;99941.44;5034256;28;20516;-80
2022/01/29 06:33:37;;;;;;;8.80;5.20;;;;;;;0.91;59.60;99549.88;5034137;28;20752;-80
2022/01/29 06:36:03;;;;;;;11.53;6.60;;;;;;;3.61;59.21;99955.00;5034549;28;20190;-81
2022/01/29 06:38:28;;;;;;;11.60;6.80;;;;;;;3.32;58.28;99882.63;5034043;28;20924;-81
2022/01/29 06:40:53;;;;;;;13.07;7.13;;;;;;;3.55;59.05;99912.84;5034168;28;20186;-82
2022/01/29 06:43:19;;;;;;;9.77;5.17;;;;;;;3.45;58.11;99882.84;5020114;28;20194;-82
2022/01/29 06:45:46;;;;;;;12.93;5.83;;;;;;;3.87;58.35;99952.94;5014354;28;20186;-80
2022/01/29 06:48:12;;;;;;;15.53;7.10;;;;;;;3.63;58.68;99914.31;4994546;28;20250;-80
2022/01/29 06:50:39;;;;;;;11.83;6.00;;;;;;;3.91;58.49;99953.28;4998433;28;20925;-81
2022/01/29 06:53:05;;;;;;;10.63;6.00;;;;;;;3.77;58.76;99935.41;5013712;28;20445;-81
2022/01/29 06:55:31;;;;;;;12.03;5.70;;;;;;;3.78;58.38;99913.03;5014653;28;20883;-81
2022/01/29 06:57:57;;;;;;;14.07;4.77;;;;;;;3.71;58.25;99894.91;5006619;28;20473;-81
2022/01/29 07:00:22;;;;;;;10.13;5.03;;;;;;;4.03;58.33;99963.38;5014462;28;20272;-80
2022/01/29 07:02:48;;;;;;;9.33;5.33;;;;;;;4.03;58.42;99969.28;5014001;28;20170;-79
2022/01/29 07:05:14;;;;;;;12.00;5.10;;;;;;;4.06;58.98;99957.00;5014171;28;20190;-81
2022/01/29 07:07:39;;;;;;;9.87;5.07;;;;;;;2.97;58.43;99773.16;5013957;28;20171;-81
2022/01/29 07:10:06;;;;;;;9.23;4.67;;;;;;;4.16;58.59;99961.06;5013639;28;20169;-81
2022/01/29 07:12:32;;;;;;;14.07;7.73;;;;;;;4.34;57.77;99961.63;5013398;28;20213;-81
2022/01/29 07:14:58;;;;;;;6.80;4.13;;;;;;;2.97;56.67;99693.16;5019659;28;20915;-83
2022/01/29 07:17:24;;;;;;;13.50;6.33;;;;;;;4.41;57.52;99971.34;5019806;28;20500;-80
2022/01/29 07:19:51;;;;;;;35.27;20.80;;;;;;;4.76;56.94;99977.41;5012701;28;20175;-81
2022/01/29 07:22:17;;;;;;;15.90;8.60;;;;;;;4.48;56.76;99914.28;5013465;28;20489;-82
2022/01/29 07:24:44;;;;;;;16.13;7.80;;;;;;;4.08;55.55;99795.16;5014789;28;20451;-81
2022/01/29 07:27:10;;;;;;;15.37;7.67;;;;;;;5.27;55.26;99977.91;5013273;28;20409;-82
2022/01/29 07:29:35;;;;;;;20.47;10.10;;;;;;;3.97;56.12;99800.09;5014354;28;20198;-82
2022/01/29 07:32:07;;;;;;;14.93;7.60;;;;;;;5.16;56.03;99984.66;5012868;28;20198;-82
2022/01/29 07:34:33;;;;;;;19.67;9.27;;;;;;;4.80;57.41;99989.44;5013697;28;20222;-82
2022/01/29 07:36:58;;;;;;;15.97;7.73;;;;;;;4.64;57.63;99984.00;5013915;28;20531;-82
2022/01/29 07:39:25;;;;;;;23.70;10.00;;;;;;;3.85;58.56;99839.22;5013046;28;20537;-82
2022/01/29 07:41:51;;;;;;;16.90;8.27;;;;;;;4.91;58.01;99985.22;5021109;28;20541;-81
2022/01/29 07:44:17;;;;;;;18.57;8.27;;;;;;;4.50;57.31;99892.72;5013234;28;20410;-81
2022/01/29 07:46:43;;;;;;;19.00;8.70;;;;;;;4.94;57.43;99938.66;5013914;28;20203;-82
2022/01/29 07:49:09;;;;;;;12.70;6.13;;;;;;;5.32;56.90;99982.50;5031990;28;20192;-81
2022/01/29 07:51:35;;;;;;;15.30;8.00;;;;;;;3.91;56.52;99757.06;5019898;28;20929;-82
2022/01/29 07:54:01;;;;;;;12.03;6.23;;;;;;;5.50;56.12;99989.59;5019086;28;20293;-82
2022/01/29 07:56:26;;;;;;;26.00;12.03;;;;;;;5.07;56.92;99916.22;5024430;28;20542;-82
2022/01/29 07:58:52;;;;;;;15.97;7.50;;;;;;;5.22;57.82;99991.72;5034197;28;20181;-82
2022/01/29 08:01:18;;;;;;;13.87;6.87;;;;;;;5.12;58.42;99991.81;5028259;28;20182;-81
2022/01/29 08:03:50;;;;;;;11.97;6.97;;;;;;;5.35;57.34;100001.94;5045052;28;20169;-85
2022/01/29 08:06:18;;;;;;;13.90;7.10;;;;;;;5.10;58.18;99988.31;5046033;28;20217;-82
2022/01/29 08:08:44;;;;;;;15.73;7.43;;;;;;;3.71;56.94;99682.97;5022073;28;20520;-81
2022/01/29 08:11:12;;;;;;;17.83;10.33;;;;;;;4.74;56.15;99774.16;5014699;28;20452;-82
2022/01/29 08:13:38;;;;;;;28.43;15.20;;;;;;;6.21;54.50;99929.41;5013176;28;20449;-83
2022/01/29 08:16:05;;;;;;;19.90;10.53;;;;;;;6.70;54.17;99986.47;5012143;28;20508;-82
2022/01/29 08:18:30;;;;;;;16.10;9.00;;;;;;;5.74;53.31;99795.47;5027875;28;20272;-81
2022/01/29 08:20:56;;;;;;;16.97;9.57;;;;;;;6.82;52.61;99992.28;5032875;28;20987;-82
2022/01/29 08:23:21;;;;;;;18.07;7.87;;;;;;;5.08;52.18;99664.53;5035537;28;20162;-83
2022/01/29 08:25:48;;;;;;;18.50;9.70;;;;;;;5.31;53.24;99795.00;5030952;28;20571;-81
2022/01/29 08:28:14;;;;;;;18.90;8.67;;;;;;;6.32;53.27;99939.44;5035886;28;20174;-83
2022/01/29 08:30:39;;;;;;;28.17;13.90;;;;;;;6.98;52.77;99992.56;5034383;28;20397;-81
2022/01/29 08:33:06;;;;;;;42.10;21.57;;;;;;;7.23;51.64;100005.13;5035829;28;20263;-81
2022/01/29 08:35:32;;;;;;;23.97;11.00;;;;;;;7.03;51.88;99996.28;5034600;28;20225;-82
2022/01/29 08:37:59;;;;;;;25.27;12.93;;;;;;;6.69;53.04;100007.34;5035594;28;20971;-82
2022/01/29 08:40:24;;;;;;;18.67;9.67;;;;;;;6.27;53.26;99909.72;5033910;28;20484;-82
2022/01/29 08:42:50;;;;;;;15.77;8.17;;;;;;;6.44;52.62;99920.16;5033757;28;20428;-82
2022/01/29 08:45:16;;;;;;;20.40;11.13;;;;;;;7.62;50.86;100016.19;5025668;28;20233;-81
2022/01/29 08:47:42;;;;;;;25.37;13.50;;;;;;;7.83;50.18;100015.81;5017520;28;20208;-83
2022/01/29 08:50:10;;;;;;;15.33;8.83;;;;;;;6.98;50.47;99924.59;5033164;28;20406;-80
2022/01/29 08:52:36;;;;;;;20.23;11.33;;;;;;;7.21;52.05;99964.75;5020744;28;20460;-82
2022/01/29 08:55:03;;;;;;;20.57;10.13;;;;;;;7.53;51.86;100012.16;5018774;28;20409;-83
2022/01/29 08:57:28;;;;;;;20.73;9.73;;;;;;;7.42;51.26;99991.31;5014328;28;20401;-83
2022/01/29 08:59:54;;;;;;;13.90;7.97;;;;;;;6.32;53.26;99946.97;5013575;28;20408;-82
2022/01/29 09:02:19;;;;;;;9.00;5.73;;;;;;;5.54;53.35;99839.28;5034492;28;20175;-82
2022/01/29 09:04:44;;;;;;;16.83;8.53;;;;;;;5.89;53.92;99924.66;5037164;28;20159;-82
2022/01/29 09:07:10;;;;;;;13.13;7.50;;;;;;;6.27;53.70;99960.88;5025394;28;20179;-82
2022/01/29 09:09:36;;;;;;;19.87;9.23;;;;;;;7.20;52.21;100023.44;5013567;28;20174;-82
2022/01/29 09:12:02;;;;;;;13.97;6.57;;;;;;;6.96;51.56;99951.31;5015691;28;20163;-83
2022/01/29 09:14:27;;;;;;;20.27;10.87;;;;;;;6.88;51.50;99882.88;5019013;28;20945;-82
2022/01/29 09:16:53;;;;;;;13.60;7.33;;;;;;;7.91;50.15;100012.16;5032037;28;20499;-82
2022/01/29 09:19:19;;;;;;;26.07;12.10;;;;;;;7.71;49.65;100009.22;5017272;28;20159;-83
2022/01/29 09:21:44;;;;;;;16.50;7.53;;;;;;;7.40;49.73;99902.22;5015432;28;20201;-83
2022/01/29 09:24:10;;;;;;;16.13;8.43;;;;;;;7.67;50.12;99994.66;5016340;28;20657;-83
2022/01/29 09:26:35;;;;;;;21.93;11.83;;;;;;;6.86;48.97;99845.78;5008992;28;20316;-83
2022/01/29 09:29:01;;;;;;;19.77;9.27;;;;;;;6.61;49.48;99785.47;5011265;28;20170;-82
2022/01/29 09:31:26;;;;;;;13.57;7.20;;;;;;;6.92;49.77;99921.69;5018464;28;20183;-85
2022/01/29 09:33:52;;;;;;;20.17;8.37;;;;;;;6.71;50.96;99850.69;5019828;28;20238;-84
2022/01/29 09:36:21;;;;;;;13.23;7.20;;;;;;;4.75;49.96;99529.31;5018982;28;20171;-83
2022/01/29 09:38:47;;;;;;;18.77;9.10;;;;;;;7.79;49.77;99981.97;5016780;28;20261;-83
2022/01/29 09:41:13;;;;;;;15.80;8.40;;;;;;;6.79;49.86;99853.69;5012645;28;20441;-82
2022/01/29 09:43:42;;;;;;;13.30;7.33;;;;;;;7.35;49.28;99907.72;5012879;28;20607;-81
2022/01/29 09:46:07;;;;;;;22.93;11.57;;;;;;;6.68;49.70;99819.41;5015068;28;20182;-83
2022/01/29 09:48:36;;;;;;;18.97;10.50;;;;;;;7.69;50.18;100007.38;5013847;28;20179;-81
2022/01/29 09:51:01;;;;;;;12.27;6.37;;;;;;;7.46;50.42;99994.94;5017518;28;20540;-81
2022/01/29 09:53:27;;;;;;;14.37;8.13;;;;;;;6.64;50.05;99822.53;5020056;28;20452;-83
2022/01/29 09:55:52;;;;;;;26.43;13.43;;;;;;;7.73;48.26;99874.09;5018814;28;20657;-83
2022/01/29 09:58:18;;;;;;;14.73;7.80;;;;;;;8.76;47.37;99965.34;5021953;28;20178;-84
2022/01/29 10:00:44;;;;;;;13.50;8.00;;;;;;;8.40;47.44;99922.78;5020052;28;20202;-84
2022/01/29 10:03:10;;;;;;;20.80;9.27;;;;;;;8.45;47.96;99990.38;5015157;28;20181;-83
2022/01/29 10:05:45;;;;;;;16.80;7.23;;;;;;;6.03;47.13;99557.09;5019421;28;20186;-84
2022/01/29 10:08:11;;;;;;;15.60;8.20;;;;;;;7.37;47.71;99813.00;5016137;28;20208;-83
2022/01/29 10:10:42;;;;;;;14.70;8.03;;;;;;;7.11;46.99;99723.25;5015269;28;20167;-83
2022/01/29 10:13:31;;;;;;;256.57;79.43;;;;;;;7.69;46.93;99780.59;5032914;28;20610;-83
2022/01/29 10:16:20;;;;;;;13.00;8.47;;;;;;;9.01;46.40;99976.09;5017288;28;20159;-81
2022/01/29 10:18:58;;;;;;;12.23;7.87;;;;;;;9.12;46.10;99928.75;5016347;28;20171;-83
2022/01/29 10:21:25;;;;;;;17.93;9.87;;;;;;;8.06;45.54;99766.00;5015513;28;20193;-82
2022/01/29 10:24:07;;;;;;;26.17;15.13;;;;;;;9.30;44.90;99978.69;5016197;28;20186;-82
2022/01/29 10:26:37;;;;;;;17.50;10.00;;;;;;;8.86;45.57;99977.72;5016420;28;20173;-82
2022/01/29 10:29:07;;;;;;;30.10;16.57;;;;;;;8.00;46.90;99891.69;5017537;28;20170;-83
2022/01/29 10:31:45;;;;;;;20.53;11.83;;;;;;;8.11;48.09;99984.00;5019691;28;20167;-83
2022/01/29 10:34:24;;;;;;;29.83;13.90;;;;;;;8.17;47.73;99984.38;5022287;28;20294;-87
2022/01/29 10:37:21;;;;;;;18.83;10.03;;;;;;;7.60;48.27;99979.06;5017940;28;20182;-83
2022/01/29 10:39:53;;;;;;;10.37;5.17;;;;;;;7.76;47.76;99980.91;5032315;28;20589;-83
2022/01/29 10:42:32;;;;;;;11.50;6.67;;;;;;;7.86;47.96;99974.03;5019203;28;20631;-83
2022/01/29 10:45:06;;;;;;;16.00;7.03;;;;;;;6.34;48.35;99701.56;5018337;28;20186;-82
2022/01/29 10:47:53;;;;;;;36.30;17.37;;;;;;;8.85;45.32;99975.97;5018156;28;20171;-83
2022/01/29 10:50:19;;;;;;;33.10;18.00;;;;;;;9.21;44.86;99980.66;5017591;28;20197;-82
2022/01/29 10:52:45;;;;;;;30.13;16.00;;;;;;;9.19;44.10;99981.38;5018221;28;20198;-84
2022/01/29 10:55:10;;;;;;;28.23;14.10;;;;;;;9.43;44.98;99973.53;5018110;28;20229;-83
2022/01/29 10:57:42;;;;;;;20.63;9.50;;;;;;;9.71;44.33;99965.88;5017666;28;20170;-83
2022/01/29 11:00:15;;;;;;;8.30;4.90;;;;;;;9.07;44.84;99966.38;5019646;28;20162;-83
2022/01/29 11:02:42;;;;;;;7.47;4.93;;;;;;;8.50;44.56;99892.25;5020525;28;20158;-82
2022/01/29 11:05:08;;;;;;;9.47;5.93;;;;;;;9.28;44.51;99964.22;5017988;28;20171;-83
2022/01/29 11:07:35;;;;;;;14.67;7.53;;;;;;;7.93;44.80;99735.81;5019282;28;20305;-83
2022/01/29 11:10:06;;;;;;;10.03;5.97;;;;;;;9.31;44.74;99916.41;5024404;28;20627;-84
2022/01/29 11:12:33;;;;;;;13.77;7.70;;;;;;;9.19;45.21;99967.09;5020056;28;20198;-83
2022/01/29 11:15:02;;;;;;;14.10;7.43;;;;;;;8.24;45.55;99914.22;5018711;28;20285;-83
2022/01/29 11:17:29;;;;;;;26.30;14.53;;;;;;;8.02;44.21;99739.72;5021495;28;20167;-83
2022/01/29 11:19:55;;;;;;;26.47;14.00;;;;;;;9.46;43.59;99962.72;5020143;28;20249;-84
2022/01/29 11:22:35;;;;;;;16.90;9.60;;;;;;;9.44;43.16;99961.78;5026401;28;20166;-84
2022/01/29 11:25:05;;;;;;;27.73;13.20;;;;;;;9.64;43.49;99958.69;5049135;22;20305;-82
2022/01/29 11:27:33;;;;;;;19.90;11.03;;;;;;;9.98;42.87;99956.38;5032703;28;20163;-85
2022/01/29 11:30:06;;;;;;;10.53;7.07;;;;;;;9.49;42.56;99903.13;5019939;28;20238;-83
2022/01/29 11:32:35;;;;;;;8.73;4.93;;;;;;;9.29;42.74;99902.78;5017880;28;20191;-83
2022/01/29 11:35:13;;;;;;;10.90;6.10;;;;;;;9.55;43.17;99958.22;5020760;28;20542;-81
2022/01/29 11:37:53;;;;;;;12.13;8.40;;;;;;;10.02;42.28;99948.19;5027167;28;20171;-83
2022/01/29 11:40:21;;;;;;;10.60;6.83;;;;;;;10.10;42.12;99949.47;5020226;28;20190;-83
2022/01/29 11:43:06;;;;;;;8.87;5.40;;;;;;;10.35;41.28;99951.69;5036777;28;20171;-83
2022/01/29 11:45:42;;;;;;;10.77;7.10;;;;;;;10.26;41.35;99948.66;5023461;28;20179;-83
2022/01/29 11:48:29;;;;;;;8.33;4.30;;;;;;;8.95;42.00;99804.06;5026405;28;20178;-83
2022/01/29 11:51:09;;;;;;;80.47;42.23;;;;;;;9.54;41.98;99900.84;4964217;29;20195;-83